sensor_id;sensor_type;location;lat;lon;timestamp;temperature;humidity
35343;DHT22;21449;48.146;11.594;2022-09-12T00:00:30;11.50;99.90
35343;DHT22;21449;48.146;11.594;2022-09-12T00:04:34;11.50;99.90
35343;DHT22;21449;48.146;11.594;2022-09-12T00:08:36;11.40;99.90
35343;DHT22;21449;48.146;11.594;2022-09-12T00:12:38;11.30;99.90
35343;DHT22;21449;48.146;11.594;2022-09-12T00:16:41;11.20;99.90
35343;DHT22;21449;48.146;11.594;2022-09-12T00:20:46;11.20;99.90
35343;DHT22;21449;48.146;11.594;2022-09-12T00:24:48;11.10;99.90
35343;DHT22;21449;48.146;11.594;2022-09-12T00:28:50;11.10;99.90
35343;DHT22;21449;48.146;11.594;2022-09-12T00:32:52;11.10;99.90
35343;DHT22;21449;48.146;11.594;2022-09-12T00:36:57;11.10;99.90
35343;DHT22;21449;48.146;11.594;2022-09-12T00:40:59;11.20;99.90
35343;DHT22;21449;48.146;11.594;2022-09-12T00:45:01;11.20;99.90
35343;DHT22;21449;48.146;11.594;2022-09-12T00:49:07;11.20;99.90
35343;DHT22;21449;48.146;11.594;2022-09-12T00:53:14;11.20;99.90
35343;DHT22;21449;48.146;11.594;2022-09-12T00:57:17;11.10;99.90
35343;DHT22;21449;48.146;11.594;2022-09-12T01:01:20;11.10;99.90
35343;DHT22;21449;48.146;11.594;2022-09-12T01:05:22;11.10;99.90
35343;DHT22;21449;48.146;11.594;2022-09-12T01:09:28;11.10;99.90
35343;DHT22;21449;48.146;11.594;2022-09-12T01:13:31;11.10;99.90
35343;DHT22;21449;48.146;11.594;2022-09-12T01:17:46;11.10;99.90
35343;DHT22;21449;48.146;11.594;2022-09-12T01:22:00;11.00;99.90
35343;DHT22;21449;48.146;11.594;2022-09-12T01:26:22;11.00;99.90
35343;DHT22;21449;48.146;11.594;2022-09-12T01:30:44;10.90;99.90
35343;DHT22;21449;48.146;11.594;2022-09-12T01:34:51;10.80;99.90
35343;DHT22;21449;48.146;11.594;2022-09-12T01:38:59;10.70;99.90
35343;DHT22;21449;48.146;11.594;2022-09-12T01:43:08;10.70;99.90
35343;DHT22;21449;48.146;11.594;2022-09-12T01:47:16;10.60;99.90
35343;DHT22;21449;48.146;11.594;2022-09-12T01:51:22;10.70;99.90
35343;DHT22;21449;48.146;11.594;2022-09-12T01:55:28;10.70;99.90
35343;DHT22;21449;48.146;11.594;2022-09-12T01:59:34;10.80;99.90
35343;DHT22;21449;48.146;11.594;2022-09-12T02:03:45;10.80;99.90
35343;DHT22;21449;48.146;11.594;2022-09-12T02:07:52;10.80;99.90
35343;DHT22;21449;48.146;11.594;2022-09-12T02:11:57;10.80;99.90
35343;DHT22;21449;48.146;11.594;2022-09-12T02:16:04;10.80;99.90
35343;DHT22;21449;48.146;11.594;2022-09-12T02:20:15;10.80;99.90
35343;DHT22;21449;48.146;11.594;2022-09-12T02:24:41;10.80;99.90
35343;DHT22;21449;48.146;11.594;2022-09-12T02:28:44;10.70;99.90
35343;DHT22;21449;48.146;11.594;2022-09-12T02:32:55;10.70;99.90
35343;DHT22;21449;48.146;11.594;2022-09-12T02:37:09;10.70;99.90
35343;DHT22;21449;48.146;11.594;2022-09-12T02:41:16;10.60;99.90
35343;DHT22;21449;48.146;11.594;2022-09-12T02:45:19;10.50;99.90
35343;DHT22;21449;48.146;11.594;2022-09-12T02:49:22;10.50;99.90
35343;DHT22;21449;48.146;11.594;2022-09-12T02:53:26;10.40;99.90
35343;DHT22;21449;48.146;11.594;2022-09-12T02:57:29;10.40;99.90
35343;DHT22;21449;48.146;11.594;2022-09-12T03:06:00;10.40;99.90
35343;DHT22;21449;48.146;11.594;2022-09-12T03:10:09;10.40;99.90
35343;DHT22;21449;48.146;11.594;2022-09-12T03:14:25;10.30;99.90
35343;DHT22;21449;48.146;11.594;2022-09-12T03:18:41;10.30;99.90
35343;DHT22;21449;48.146;11.594;2022-09-12T03:22:52;10.30;99.90
35343;DHT22;21449;48.146;11.594;2022-09-12T03:27:02;10.20;99.90
35343;DHT22;21449;48.146;11.594;2022-09-12T03:31:12;10.30;99.90
35343;DHT22;21449;48.146;11.594;2022-09-12T03:35:15;10.30;99.90
35343;DHT22;21449;48.146;11.594;2022-09-12T03:39:23;10.40;99.90
35343;DHT22;21449;48.146;11.594;2022-09-12T03:43:28;10.30;99.90
35343;DHT22;21449;48.146;11.594;2022-09-12T03:47:30;10.20;99.90
35343;DHT22;21449;48.146;11.594;2022-09-12T03:51:32;10.20;99.90
35343;DHT22;21449;48.146;11.594;2022-09-12T03:55:34;10.20;99.90
35343;DHT22;21449;48.146;11.594;2022-09-12T03:59:39;10.20;99.90
35343;DHT22;21449;48.146;11.594;2022-09-12T04:03:42;10.20;99.90
35343;DHT22;21449;48.146;11.594;2022-09-12T04:07:44;10.20;99.90
35343;DHT22;21449;48.146;11.594;2022-09-12T04:11:46;10.20;99.90
35343;DHT22;21449;48.146;11.594;2022-09-12T04:15:58;10.20;99.90
35343;DHT22;21449;48.146;11.594;2022-09-12T04:20:00;10.20;99.90
35343;DHT22;21449;48.146;11.594;2022-09-12T04:24:03;10.20;99.90
35343;DHT22;21449;48.146;11.594;2022-09-12T04:28:05;10.20;99.90
35343;DHT22;21449;48.146;11.594;2022-09-12T04:32:09;10.20;99.90
35343;DHT22;21449;48.146;11.594;2022-09-12T04:36:13;10.10;99.90
35343;DHT22;21449;48.146;11.594;2022-09-12T04:40:16;10.00;99.90
35343;DHT22;21449;48.146;11.594;2022-09-12T04:44:18;10.00;99.90
35343;DHT22;21449;48.146;11.594;2022-09-12T04:48:22;9.80;99.90
35343;DHT22;21449;48.146;11.594;2022-09-12T04:52:24;9.80;99.90
35343;DHT22;21449;48.146;11.594;2022-09-12T04:56:27;9.80;99.90
35343;DHT22;21449;48.146;11.594;2022-09-12T05:00:29;9.80;99.90
35343;DHT22;21449;48.146;11.594;2022-09-12T05:04:36;9.80;99.90
35343;DHT22;21449;48.146;11.594;2022-09-12T05:08:38;9.80;99.90
35343;DHT22;21449;48.146;11.594;2022-09-12T05:12:40;9.80;99.90
35343;DHT22;21449;48.146;11.594;2022-09-12T05:16:42;9.90;99.90
35343;DHT22;21449;48.146;11.594;2022-09-12T05:20:52;10.00;99.90
35343;DHT22;21449;48.146;11.594;2022-09-12T05:24:55;10.10;99.90
35343;DHT22;21449;48.146;11.594;2022-09-12T05:28:57;10.20;99.90
35343;DHT22;21449;48.146;11.594;2022-09-12T05:32:58;10.30;99.90
35343;DHT22;21449;48.146;11.594;2022-09-12T05:37:03;10.40;99.90
35343;DHT22;21449;48.146;11.594;2022-09-12T05:41:07;10.50;99.90
35343;DHT22;21449;48.146;11.594;2022-09-12T05:45:15;10.60;99.90
35343;DHT22;21449;48.146;11.594;2022-09-12T05:49:17;10.80;99.90
35343;DHT22;21449;48.146;11.594;2022-09-12T05:53:21;10.90;99.90
35343;DHT22;21449;48.146;11.594;2022-09-12T05:57:23;11.00;99.90
35343;DHT22;21449;48.146;11.594;2022-09-12T06:01:26;11.10;99.90
35343;DHT22;21449;48.146;11.594;2022-09-12T06:05:29;11.30;99.90
35343;DHT22;21449;48.146;11.594;2022-09-12T06:09:33;11.50;99.90
35343;DHT22;21449;48.146;11.594;2022-09-12T06:13:37;11.60;99.90
35343;DHT22;21449;48.146;11.594;2022-09-12T06:17:39;11.70;99.90
35343;DHT22;21449;48.146;11.594;2022-09-12T06:21:41;11.90;99.90
35343;DHT22;21449;48.146;11.594;2022-09-12T06:25:49;12.10;99.90
35343;DHT22;21449;48.146;11.594;2022-09-12T06:29:51;12.20;99.90
35343;DHT22;21449;48.146;11.594;2022-09-12T06:33:55;12.40;99.90
35343;DHT22;21449;48.146;11.594;2022-09-12T06:37:57;12.50;99.90
35343;DHT22;21449;48.146;11.594;2022-09-12T06:42:01;12.70;99.90
35343;DHT22;21449;48.146;11.594;2022-09-12T06:46:04;12.90;99.90
35343;DHT22;21449;48.146;11.594;2022-09-12T06:50:07;13.10;99.90
35343;DHT22;21449;48.146;11.594;2022-09-12T06:54:12;13.20;99.90
35343;DHT22;21449;48.146;11.594;2022-09-12T06:58:19;13.50;99.90
35343;DHT22;21449;48.146;11.594;2022-09-12T07:02:21;13.70;99.90
35343;DHT22;21449;48.146;11.594;2022-09-12T07:06:25;13.90;99.90
35343;DHT22;21449;48.146;11.594;2022-09-12T07:10:27;14.10;99.90
35343;DHT22;21449;48.146;11.594;2022-09-12T07:14:32;14.40;99.90
35343;DHT22;21449;48.146;11.594;2022-09-12T07:18:35;14.70;99.90
35343;DHT22;21449;48.146;11.594;2022-09-12T07:22:37;15.00;99.90
35343;DHT22;21449;48.146;11.594;2022-09-12T07:26:39;15.10;99.90
35343;DHT22;21449;48.146;11.594;2022-09-12T07:30:44;15.40;99.90
35343;DHT22;21449;48.146;11.594;2022-09-12T07:34:46;15.80;99.90
35343;DHT22;21449;48.146;11.594;2022-09-12T07:38:52;16.10;99.90
35343;DHT22;21449;48.146;11.594;2022-09-12T07:42:58;16.20;99.90
35343;DHT22;21449;48.146;11.594;2022-09-12T07:47:03;16.50;99.90
35343;DHT22;21449;48.146;11.594;2022-09-12T07:51:07;16.70;99.90
35343;DHT22;21449;48.146;11.594;2022-09-12T07:55:09;16.90;99.90
35343;DHT22;21449;48.146;11.594;2022-09-12T07:59:11;17.10;99.90
35343;DHT22;21449;48.146;11.594;2022-09-12T08:03:16;17.30;99.90
35343;DHT22;21449;48.146;11.594;2022-09-12T08:07:18;17.10;99.90
35343;DHT22;21449;48.146;11.594;2022-09-12T08:11:22;17.20;99.90
35343;DHT22;21449;48.146;11.594;2022-09-12T08:15:24;17.40;99.90
35343;DHT22;21449;48.146;11.594;2022-09-12T08:19:29;17.80;99.90
35343;DHT22;21449;48.146;11.594;2022-09-12T08:23:31;18.10;99.90
35343;DHT22;21449;48.146;11.594;2022-09-12T08:27:33;18.40;99.90
35343;DHT22;21449;48.146;11.594;2022-09-12T08:31:35;18.70;99.90
35343;DHT22;21449;48.146;11.594;2022-09-12T08:35:40;19.20;99.90
35343;DHT22;21449;48.146;11.594;2022-09-12T08:39:42;19.10;99.90
35343;DHT22;21449;48.146;11.594;2022-09-12T08:48:12;19.00;99.90
35343;DHT22;21449;48.146;11.594;2022-09-12T08:52:20;18.90;99.90
35343;DHT22;21449;48.146;11.594;2022-09-12T08:56:24;19.30;99.90
35343;DHT22;21449;48.146;11.594;2022-09-12T09:00:41;19.40;99.90
35343;DHT22;21449;48.146;11.594;2022-09-12T09:04:49;19.60;99.90
35343;DHT22;21449;48.146;11.594;2022-09-12T09:09:04;19.80;99.90
35343;DHT22;21449;48.146;11.594;2022-09-12T09:13:13;19.70;99.90
35343;DHT22;21449;48.146;11.594;2022-09-12T09:17:19;19.40;99.90
35343;DHT22;21449;48.146;11.594;2022-09-12T09:21:26;19.70;99.90
35343;DHT22;21449;48.146;11.594;2022-09-12T09:25:41;20.10;99.90
35343;DHT22;21449;48.146;11.594;2022-09-12T09:29:48;20.10;99.90
35343;DHT22;21449;48.146;11.594;2022-09-12T09:33:53;20.30;99.90
35343;DHT22;21449;48.146;11.594;2022-09-12T09:38:00;20.60;99.50
35343;DHT22;21449;48.146;11.594;2022-09-12T09:42:15;20.70;98.10
35343;DHT22;21449;48.146;11.594;2022-09-12T09:46:18;20.70;97.10
35343;DHT22;21449;48.146;11.594;2022-09-12T09:50:21;20.60;96.60
35343;DHT22;21449;48.146;11.594;2022-09-12T09:54:26;20.60;96.20
35343;DHT22;21449;48.146;11.594;2022-09-12T09:58:34;20.70;97.60
35343;DHT22;21449;48.146;11.594;2022-09-12T10:02:36;20.80;96.60
35343;DHT22;21449;48.146;11.594;2022-09-12T10:06:38;21.10;97.20
35343;DHT22;21449;48.146;11.594;2022-09-12T10:10:52;21.20;96.80
